createdAt,value
2018-04-07T00:02:34.812Z,76.80
2018-04-07T00:17:36.745Z,76.77
2018-04-07T00:32:34.694Z,76.74
2018-04-07T00:47:35.085Z,76.58
2018-04-07T01:17:36.558Z,76.67
2018-04-07T01:32:34.930Z,76.55
2018-04-07T01:47:37.320Z,76.45
2018-04-07T02:02:37.260Z,76.31
2018-04-07T02:17:35.254Z,76.25
2018-04-07T02:32:34.674Z,76.20
2018-04-07T02:47:36.606Z,76.32
2018-04-07T03:02:34.519Z,76.38
2018-04-07T03:17:34.946Z,76.54
2018-04-07T03:32:34.450Z,76.42
2018-04-07T03:47:34.840Z,76.38
2018-04-07T04:02:34.719Z,76.26
2018-04-07T04:17:34.719Z,78.81
2018-04-07T04:32:34.699Z,66.03
2018-04-07T04:47:35.067Z,64.68
2018-04-07T05:02:34.995Z,67.86
2018-04-07T05:17:34.944Z,69.62
2018-04-07T05:32:35.434Z,72.64
2018-04-07T05:47:35.262Z,68.92
2018-04-07T06:02:35.217Z,75.62
2018-04-07T06:17:35.180Z,68.55
2018-04-07T06:32:35.210Z,68.46
2018-04-07T06:47:34.506Z,66.71
2018-04-07T07:02:37.410Z,65.52
2018-04-07T07:17:34.401Z,63.93
2018-04-07T07:32:34.493Z,63.51
2018-04-07T07:47:35.074Z,62.83
2018-04-07T08:02:34.437Z,59.90
2018-04-07T08:17:34.615Z,57.57
2018-04-07T08:32:34.641Z,57.54
2018-04-07T08:47:34.756Z,59.15
2018-04-07T09:02:36.908Z,59.61
2018-04-07T09:17:34.190Z,61.84
2018-04-07T09:32:34.861Z,63.31
2018-04-07T09:47:35.152Z,63.01
2018-04-07T10:02:36.380Z,61.39
2018-04-07T10:17:35.442Z,60.19
2018-04-07T10:32:35.066Z,58.44
2018-04-07T10:47:34.410Z,54.55
2018-04-07T11:02:34.078Z,50.47
2018-04-07T11:17:35.302Z,50.15
2018-04-07T11:32:37.265Z,49.77
2018-04-07T11:47:36.615Z,49.25
2018-04-07T12:02:34.661Z,49.50
2018-04-07T12:17:34.870Z,47.97
2018-04-07T12:32:34.946Z,47.75
2018-04-07T12:47:36.788Z,46.79
2018-04-07T13:02:34.835Z,45.90
2018-04-07T13:17:34.812Z,46.98
2018-04-07T13:32:34.738Z,47.77
2018-04-07T13:47:34.870Z,49.91
2018-04-07T14:02:35.035Z,51.35
2018-04-07T14:17:34.984Z,51.78
2018-04-07T14:32:34.658Z,52.67
2018-04-07T14:47:36.094Z,54.05
2018-04-07T15:02:35.275Z,55.34
2018-04-07T15:17:35.569Z,55.07
2018-04-07T15:32:35.191Z,54.01
2018-04-07T15:47:34.615Z,53.37
2018-04-07T16:02:34.866Z,53.99
2018-04-07T16:17:36.518Z,54.88
2018-04-07T16:32:34.773Z,55.75
2018-04-07T16:47:37.692Z,56.66
2018-04-07T17:02:34.686Z,57.72
2018-04-07T17:17:35.167Z,57.69
2018-04-07T17:32:34.403Z,58.16
2018-04-07T17:47:36.746Z,58.93
2018-04-07T18:02:34.970Z,58.22
2018-04-07T18:17:34.914Z,59.46
2018-04-07T18:32:34.649Z,60.99
2018-04-07T18:47:37.029Z,61.78
2018-04-07T19:02:35.226Z,63.34
2018-04-07T19:17:35.135Z,63.86
2018-04-07T19:32:34.877Z,64.72
2018-04-07T19:47:34.449Z,65.29
2018-04-07T20:02:34.529Z,65.96
2018-04-07T20:17:34.179Z,66.60
2018-04-07T20:32:34.138Z,67.16
2018-04-07T20:47:34.478Z,67.26
2018-04-07T21:02:34.670Z,65.55
2018-04-07T21:17:34.873Z,65.19
2018-04-07T21:32:34.531Z,64.88
2018-04-07T21:47:34.917Z,64.39
2018-04-07T22:02:34.945Z,64.47
2018-04-07T22:17:34.906Z,64.35
2018-04-07T22:32:36.785Z,64.51
2018-04-07T22:47:35.161Z,65.04
2018-04-07T23:02:35.142Z,66.00
2018-04-07T23:17:35.042Z,66.30
2018-04-07T23:32:34.997Z,66.37
2018-04-07T23:47:34.333Z,66.43
